createdAt,value
2023-01-28T00:01:18.545Z,47.05
2023-01-28T00:03:46.198Z,51.05
2023-01-28T00:06:15.851Z,47.17
2023-01-28T00:08:44.846Z,46.42
2023-01-28T00:11:16.197Z,46.42
2023-01-28T00:13:44.557Z,44.50
2023-01-28T00:16:12.850Z,45.40
2023-01-28T00:18:40.784Z,44.75
2023-01-28T00:21:11.039Z,49.70
2023-01-28T00:23:43.010Z,40.85
2023-01-28T00:26:14.840Z,47.15
2023-01-28T00:28:42.899Z,49.97
2023-01-28T00:31:13.554Z,45.47
2023-01-28T00:33:41.217Z,45.67
2023-01-28T00:36:10.269Z,42.38
2023-01-28T00:38:38.063Z,45.88
2023-01-28T00:41:10.365Z,46.42
2023-01-28T00:43:41.837Z,51.10
2023-01-28T00:46:11.163Z,51.47
2023-01-28T00:48:43.028Z,46.88
2023-01-28T00:51:12.348Z,44.13
2023-01-28T00:53:40.351Z,48.50
2023-01-28T00:56:10.177Z,44.60
2023-01-28T00:58:39.199Z,51.60
2023-01-28T01:01:11.569Z,47.88
2023-01-28T01:03:40.272Z,46.97
2023-01-28T01:06:08.894Z,46.95
2023-01-28T01:08:39.919Z,44.17
2023-01-28T01:11:08.962Z,50.90
2023-01-28T01:13:37.238Z,44.55
2023-01-28T01:16:08.884Z,47.35
2023-01-28T01:18:36.787Z,45.60
2023-01-28T01:21:09.572Z,44.95
2023-01-28T01:23:37.540Z,46.97
2023-01-28T01:26:05.730Z,46.42
2023-01-28T01:28:33.477Z,48.70
2023-01-28T01:31:05.128Z,47.22
2023-01-28T01:33:34.383Z,49.58
2023-01-28T01:36:02.099Z,46.42
2023-01-28T01:38:30.647Z,46.33
2023-01-28T01:40:59.743Z,49.80
2023-01-28T01:43:47.338Z,48.33
2023-01-28T01:46:22.093Z,48.53
2023-01-28T01:48:51.988Z,47.88
2023-01-28T01:51:24.294Z,45.47
2023-01-28T01:53:55.807Z,43.15
2023-01-28T01:56:29.403Z,45.35
2023-01-28T01:58:58.373Z,46.70
2023-01-28T02:01:30.499Z,45.95
2023-01-28T02:04:05.565Z,43.47
2023-01-28T02:06:34.228Z,43.60
2023-01-28T02:09:02.334Z,44.28
2023-01-28T02:11:33.420Z,46.65
2023-01-28T02:14:04.789Z,48.58
2023-01-28T02:16:33.569Z,44.78
2023-01-28T02:19:03.117Z,47.72
2023-01-28T02:22:02.506Z,43.97
2023-01-28T02:24:58.027Z,46.90
2023-01-28T02:27:30.409Z,46.88
2023-01-28T02:30:04.044Z,47.90
2023-01-28T02:32:37.714Z,50.20
2023-01-28T02:35:13.614Z,50.30
2023-01-28T02:37:47.969Z,45.88
2023-01-28T02:40:21.252Z,44.50
2023-01-28T02:42:49.530Z,44.50
2023-01-28T02:45:23.236Z,49.30
2023-01-28T02:47:58.681Z,44.05
2023-01-28T02:50:33.062Z,42.45
2023-01-28T02:53:31.988Z,42.80
2023-01-28T02:56:08.647Z,44.17
2023-01-28T02:58:46.309Z,41.22
2023-01-28T03:01:23.003Z,43.08
2023-01-28T03:03:59.688Z,47.05
2023-01-28T03:06:34.469Z,43.55
2023-01-28T03:09:22.715Z,45.17
2023-01-28T03:12:11.188Z,44.03
2023-01-28T03:14:57.471Z,43.60
2023-01-28T03:17:49.151Z,43.38
2023-01-28T03:20:34.887Z,42.60
2023-01-28T03:23:25.082Z,43.22
2023-01-28T03:26:14.785Z,44.50
2023-01-28T03:29:02.470Z,41.50
2023-01-28T03:31:47.961Z,43.65
2023-01-28T03:34:34.431Z,36.45
2023-01-28T03:37:02.266Z,35.65
2023-01-28T03:39:31.580Z,36.63
2023-01-28T03:42:01.474Z,37.10
2023-01-28T03:44:47.071Z,41.45
2023-01-28T03:47:14.820Z,44.33
2023-01-28T03:49:46.094Z,45.35
2023-01-28T03:52:14.105Z,44.40
2023-01-28T03:54:41.963Z,45.63
2023-01-28T03:57:11.049Z,45.38
2023-01-28T03:59:38.661Z,45.63
2023-01-28T04:02:06.426Z,43.70
2023-01-28T04:04:34.068Z,40.60
2023-01-28T04:07:03.109Z,41.00
2023-01-28T04:09:30.740Z,41.85
2023-01-28T04:11:58.626Z,46.38
2023-01-28T04:14:26.269Z,48.15
2023-01-28T04:16:54.876Z,43.72
2023-01-28T04:19:22.887Z,41.30
2023-01-28T04:21:50.688Z,43.13
2023-01-28T04:24:19.762Z,44.05
2023-01-28T04:26:47.483Z,44.28
2023-01-28T04:29:15.290Z,45.50
2023-01-28T04:31:43.061Z,44.55
2023-01-28T04:34:10.883Z,43.30
2023-01-28T04:36:38.525Z,47.08
2023-01-28T04:39:06.211Z,42.63
2023-01-28T04:41:35.200Z,41.17
2023-01-28T04:44:03.124Z,44.70
2023-01-28T04:46:30.780Z,42.33
2023-01-28T04:48:58.434Z,43.38
2023-01-28T04:51:26.220Z,39.72
2023-01-28T04:53:53.854Z,46.08
2023-01-28T04:56:21.501Z,43.95
2023-01-28T04:58:50.493Z,44.65
2023-01-28T05:01:18.204Z,43.92
2023-01-28T05:03:45.926Z,45.85
2023-01-28T05:06:13.626Z,43.22
2023-01-28T05:08:41.270Z,50.72
2023-01-28T05:11:08.988Z,44.72
2023-01-28T05:13:36.633Z,44.90
2023-01-28T05:16:06.178Z,44.75
2023-01-28T05:18:33.812Z,42.42
2023-01-28T05:21:01.437Z,47.90
2023-01-28T05:23:29.059Z,39.88
2023-01-28T05:25:56.673Z,43.30
2023-01-28T05:28:24.343Z,39.88
2023-01-28T05:30:52.075Z,42.97
2023-01-28T05:33:21.161Z,46.72
2023-01-28T05:35:49.544Z,36.80
2023-01-28T05:38:17.355Z,42.20
2023-01-28T05:40:45.005Z,40.83
2023-01-28T05:43:12.661Z,45.70
2023-01-28T05:45:40.788Z,45.50
2023-01-28T05:48:08.961Z,46.13
2023-01-28T05:50:38.062Z,46.67
2023-01-28T05:53:06.702Z,45.30
2023-01-28T05:55:34.406Z,48.67
2023-01-28T05:58:02.198Z,42.95
2023-01-28T06:00:29.851Z,46.20
2023-01-28T06:02:57.596Z,44.63
2023-01-28T06:05:25.392Z,39.17
2023-01-28T06:07:54.500Z,43.08
2023-01-28T06:10:22.262Z,44.45
2023-01-28T06:12:50.131Z,42.65
2023-01-28T06:15:17.941Z,40.88
2023-01-28T06:17:45.622Z,43.00
2023-01-28T06:20:13.958Z,41.35
2023-01-28T06:22:41.818Z,42.08
2023-01-28T06:25:11.143Z,44.03
2023-01-28T06:27:38.788Z,39.35
2023-01-28T06:30:07.600Z,46.72
2023-01-28T06:32:35.303Z,42.22
2023-01-28T06:35:02.961Z,41.03
2023-01-28T06:37:30.632Z,40.70
2023-01-28T06:39:58.284Z,42.55
2023-01-28T06:42:27.307Z,41.78
2023-01-28T06:44:54.938Z,42.88
2023-01-28T06:47:22.577Z,45.83
2023-01-28T06:49:50.243Z,43.42
2023-01-28T06:52:17.909Z,43.00
2023-01-28T06:54:45.578Z,43.60
2023-01-28T06:57:13.320Z,45.22
2023-01-28T06:59:42.392Z,42.67
2023-01-28T07:02:11.970Z,42.63
2023-01-28T07:04:39.662Z,43.97
2023-01-28T07:07:07.335Z,41.95
2023-01-28T07:09:35.026Z,41.85
2023-01-28T07:12:05.196Z,42.28
2023-01-28T07:14:33.391Z,43.25
2023-01-28T07:17:02.481Z,45.97
2023-01-28T07:19:30.215Z,45.47
2023-01-28T07:22:00.789Z,45.42
2023-01-28T07:24:28.546Z,49.65
2023-01-28T07:26:56.327Z,47.88
2023-01-28T07:29:24.120Z,45.75
2023-01-28T07:31:51.881Z,49.67
2023-01-28T07:34:21.024Z,44.42
2023-01-28T07:36:48.684Z,44.83
2023-01-28T07:39:16.354Z,41.72
2023-01-28T07:41:44.024Z,46.88
2023-01-28T07:44:11.911Z,41.58
2023-01-28T07:46:39.603Z,41.03
2023-01-28T07:49:07.529Z,41.85
2023-01-28T07:51:36.565Z,37.03
2023-01-28T07:54:04.286Z,40.67
2023-01-28T07:56:32.470Z,39.33
2023-01-28T07:59:00.143Z,37.70
2023-01-28T08:01:27.920Z,39.92
2023-01-28T08:03:55.576Z,43.40
2023-01-28T08:06:23.200Z,41.85
2023-01-28T08:08:52.801Z,41.42
2023-01-28T08:11:21.081Z,41.13
2023-01-28T08:13:49.865Z,40.67
2023-01-28T08:16:17.629Z,42.55
2023-01-28T08:18:45.351Z,39.53
2023-01-28T08:21:13.011Z,39.20
2023-01-28T08:23:40.678Z,40.67
2023-01-28T08:26:09.711Z,45.20
2023-01-28T08:28:37.414Z,40.78
2023-01-28T08:31:05.393Z,40.88
2023-01-28T08:33:33.200Z,43.22
2023-01-28T08:36:04.252Z,43.28
2023-01-28T08:38:31.995Z,40.85
2023-01-28T08:40:59.976Z,42.22
2023-01-28T08:43:29.034Z,36.72
2023-01-28T08:45:56.664Z,40.95
2023-01-28T08:48:24.355Z,40.53
2023-01-28T08:50:52.036Z,41.65
2023-01-28T08:53:21.354Z,39.40
2023-01-28T08:55:49.058Z,40.47
2023-01-28T08:58:19.045Z,40.15
2023-01-28T09:00:49.050Z,38.72
2023-01-28T09:03:17.099Z,41.08
2023-01-28T09:05:45.462Z,40.20
2023-01-28T09:08:15.407Z,38.03
2023-01-28T09:10:43.689Z,42.28
2023-01-28T09:13:13.394Z,36.35
2023-01-28T09:15:41.266Z,36.63
2023-01-28T09:18:10.605Z,37.92
2023-01-28T09:20:39.149Z,34.15
2023-01-28T09:23:07.918Z,33.25
2023-01-28T09:25:36.331Z,38.72
2023-01-28T09:28:04.660Z,35.65
2023-01-28T09:30:32.575Z,36.03
2023-01-28T09:33:00.882Z,36.47
2023-01-28T09:35:29.946Z,38.67
2023-01-28T09:37:58.541Z,35.47
2023-01-28T09:40:34.226Z,37.10
2023-01-28T09:43:25.825Z,33.80
2023-01-28T09:45:56.287Z,35.97
2023-01-28T09:48:32.837Z,38.53
2023-01-28T09:51:02.522Z,33.47
2023-01-28T09:53:32.785Z,33.35
2023-01-28T09:56:03.964Z,36.22
2023-01-28T09:58:32.200Z,35.53
2023-01-28T10:01:05.840Z,34.22
2023-01-28T10:03:43.443Z,31.90
2023-01-28T10:06:22.024Z,33.75
2023-01-28T10:09:19.269Z,31.55
2023-01-28T10:12:14.838Z,29.73
2023-01-28T10:14:54.563Z,30.15
2023-01-28T10:17:27.789Z,31.70
2023-01-28T10:20:01.654Z,29.08
2023-01-28T10:22:36.567Z,30.50
2023-01-28T10:25:15.020Z,33.85
2023-01-28T10:27:44.609Z,32.00
2023-01-28T10:30:19.366Z,32.65
2023-01-28T10:32:52.725Z,25.90
2023-01-28T10:35:20.621Z,28.77
2023-01-28T10:37:50.306Z,28.33
2023-01-28T10:40:18.912Z,26.83
2023-01-28T10:42:47.113Z,27.75
2023-01-28T10:45:20.338Z,27.40
2023-01-28T10:47:52.787Z,31.20
2023-01-28T10:50:24.257Z,32.45
2023-01-28T10:52:55.679Z,33.10
2023-01-28T10:55:25.440Z,29.80
2023-01-28T10:57:54.297Z,28.42
2023-01-28T11:00:28.154Z,31.33
2023-01-28T11:02:56.215Z,28.17
2023-01-28T11:05:27.241Z,31.02
2023-01-28T11:08:07.414Z,28.10
2023-01-28T11:10:38.232Z,28.08
2023-01-28T11:13:07.566Z,28.20
2023-01-28T11:15:35.319Z,26.20
2023-01-28T11:18:09.636Z,27.58
2023-01-28T11:20:42.576Z,26.70
2023-01-28T11:23:33.591Z,32.25
2023-01-28T11:26:08.819Z,29.88
2023-01-28T11:28:41.879Z,27.98
2023-01-28T11:31:13.110Z,25.95
2023-01-28T11:33:45.792Z,26.45
2023-01-28T11:36:16.760Z,28.75
2023-01-28T11:38:54.663Z,27.77
2023-01-28T11:41:29.573Z,25.95
2023-01-28T11:43:58.790Z,26.48
2023-01-28T11:46:49.034Z,25.73
2023-01-28T11:49:28.816Z,27.98
2023-01-28T11:52:06.047Z,26.88
2023-01-28T11:54:47.522Z,25.00
2023-01-28T11:57:25.038Z,27.73
2023-01-28T12:00:01.007Z,24.75
2023-01-28T12:02:46.137Z,26.00
2023-01-28T12:05:28.425Z,25.17
2023-01-28T12:08:04.966Z,29.67
2023-01-28T12:10:42.084Z,23.95
2023-01-28T12:13:40.790Z,23.65
2023-01-28T12:16:33.269Z,23.20
2023-01-28T12:19:16.240Z,22.95
2023-01-28T12:21:56.087Z,23.65
2023-01-28T12:24:37.679Z,23.00
2023-01-28T12:27:16.451Z,21.15
2023-01-28T12:29:55.979Z,22.35
2023-01-28T12:32:40.279Z,17.98
2023-01-28T12:35:32.609Z,22.02
2023-01-28T12:38:08.904Z,21.17
2023-01-28T12:40:54.537Z,20.65
2023-01-28T12:43:32.782Z,18.13
2023-01-28T12:46:06.155Z,24.95
2023-01-28T12:48:39.101Z,24.80
2023-01-28T12:51:15.485Z,23.65
2023-01-28T12:53:50.495Z,21.25
2023-01-28T12:56:21.212Z,31.95
2023-01-28T12:58:55.312Z,20.52
2023-01-28T13:01:28.569Z,23.02
2023-01-28T13:04:02.735Z,23.50
2023-01-28T13:06:34.672Z,39.72
2023-01-28T13:09:12.768Z,41.20
2023-01-28T13:11:41.363Z,38.03
2023-01-28T13:14:13.677Z,20.20
2023-01-28T13:16:41.468Z,22.05
2023-01-28T13:19:22.573Z,25.73
2023-01-28T13:21:50.765Z,35.55
2023-01-28T13:24:24.983Z,25.88
2023-01-28T13:26:54.377Z,30.65
2023-01-28T13:29:32.093Z,25.67
2023-01-28T13:32:01.798Z,31.65
2023-01-28T13:34:34.042Z,31.65
2023-01-28T13:37:06.115Z,27.83
2023-01-28T13:39:36.485Z,30.45
2023-01-28T13:42:21.938Z,49.40
2023-01-28T13:44:51.133Z,33.83
2023-01-28T13:47:26.779Z,32.03
2023-01-28T13:49:59.463Z,47.58
2023-01-28T13:52:30.415Z,27.13
2023-01-28T13:55:04.569Z,25.27
2023-01-28T13:58:08.758Z,25.38
2023-01-28T14:00:56.078Z,24.08
2023-01-28T14:03:48.806Z,29.95
2023-01-28T14:06:35.155Z,24.33
2023-01-28T14:09:20.280Z,24.98
2023-01-28T14:12:20.290Z,35.50
2023-01-28T14:15:25.590Z,28.70
2023-01-28T14:17:57.019Z,22.90
2023-01-28T14:20:29.086Z,25.98
2023-01-28T14:23:02.254Z,25.58
2023-01-28T14:25:37.007Z,30.25
2023-01-28T14:28:07.969Z,30.95
2023-01-28T14:30:49.948Z,24.80
2023-01-28T14:33:19.150Z,28.63
2023-01-28T14:35:49.607Z,23.67
2023-01-28T14:38:20.901Z,23.45
2023-01-28T14:40:51.174Z,23.42
2023-01-28T14:43:23.295Z,24.17
2023-01-28T14:46:05.850Z,27.30
2023-01-28T14:48:39.915Z,27.80
2023-01-28T14:51:32.894Z,34.38
2023-01-28T14:54:15.385Z,33.08
2023-01-28T14:56:58.348Z,28.40
2023-01-28T14:59:30.557Z,28.75
2023-01-28T15:02:00.480Z,31.83
2023-01-28T15:04:31.933Z,26.95
2023-01-28T15:07:16.210Z,29.55
2023-01-28T15:09:44.127Z,41.53
2023-01-28T15:12:12.694Z,33.17
2023-01-28T15:14:41.760Z,30.20
2023-01-28T15:17:26.368Z,26.42
2023-01-28T15:19:57.009Z,28.50
2023-01-28T15:22:28.562Z,23.85
2023-01-28T15:24:57.140Z,23.20
2023-01-28T15:27:29.836Z,30.58
2023-01-28T15:29:59.787Z,25.45
2023-01-28T15:32:29.659Z,28.17
2023-01-28T15:35:01.138Z,26.88
2023-01-28T15:37:28.947Z,27.67
2023-01-28T15:40:06.009Z,33.80
2023-01-28T15:42:34.523Z,31.58
2023-01-28T15:45:02.412Z,30.10
2023-01-28T15:47:35.339Z,32.50
2023-01-28T15:50:08.188Z,37.72
2023-01-28T15:52:38.204Z,35.33
2023-01-28T15:55:08.440Z,33.40
2023-01-28T15:57:36.503Z,28.95
2023-01-28T16:00:13.190Z,27.38
2023-01-28T16:02:44.768Z,28.88
2023-01-28T16:05:28.242Z,30.27
2023-01-28T16:07:58.390Z,36.95
2023-01-28T16:10:28.368Z,27.40
2023-01-28T16:13:06.206Z,34.33
2023-01-28T16:15:35.117Z,47.55
2023-01-28T16:18:03.947Z,35.90
2023-01-28T16:20:33.893Z,30.90
2023-01-28T16:23:04.022Z,32.78
2023-01-28T16:25:34.058Z,29.25
2023-01-28T16:28:03.910Z,28.77
2023-01-28T16:30:32.023Z,28.23
2023-01-28T16:33:00.299Z,31.48
2023-01-28T16:35:42.935Z,30.58
2023-01-28T16:38:17.788Z,37.85
2023-01-28T16:40:46.557Z,32.55
2023-01-28T16:43:15.982Z,25.42
2023-01-28T16:45:44.292Z,33.00
2023-01-28T16:48:12.138Z,38.72
2023-01-28T16:50:41.295Z,43.13
2023-01-28T16:53:22.438Z,37.60
2023-01-28T16:55:51.788Z,37.28
2023-01-28T16:58:24.914Z,34.55
2023-01-28T17:00:53.206Z,35.60
2023-01-28T17:03:20.924Z,38.00
2023-01-28T17:05:48.622Z,40.08
2023-01-28T17:08:16.949Z,34.00
2023-01-28T17:10:46.054Z,27.50
2023-01-28T17:13:13.734Z,27.52
2023-01-28T17:15:41.434Z,28.25
2023-01-28T17:18:12.873Z,28.13
2023-01-28T17:20:41.144Z,29.92
2023-01-28T17:23:09.533Z,26.77
2023-01-28T17:25:38.978Z,25.63
2023-01-28T17:28:08.897Z,27.30
2023-01-28T17:30:41.204Z,25.92
2023-01-28T17:33:09.917Z,25.90
2023-01-28T17:35:37.724Z,26.13
2023-01-28T17:38:06.361Z,24.95
2023-01-28T17:40:34.262Z,25.70
2023-01-28T17:43:01.962Z,22.88
2023-01-28T17:45:32.831Z,28.45
2023-01-28T17:48:00.662Z,23.80
2023-01-28T17:50:28.478Z,31.48
2023-01-28T17:52:56.539Z,28.30
2023-01-28T17:55:24.391Z,30.40
2023-01-28T17:57:52.464Z,30.08
2023-01-28T18:00:22.394Z,34.28
2023-01-28T18:02:52.845Z,33.95
2023-01-28T18:05:20.928Z,31.88
2023-01-28T18:07:50.267Z,32.58
2023-01-28T18:10:19.095Z,32.13
2023-01-28T18:12:46.889Z,33.88
2023-01-28T18:15:14.898Z,31.80
2023-01-28T18:17:42.803Z,36.13
2023-01-28T18:20:12.957Z,32.22
2023-01-28T18:22:40.736Z,33.08
2023-01-28T18:25:09.054Z,32.63
2023-01-28T18:27:36.774Z,36.50
2023-01-28T18:30:05.478Z,35.22
2023-01-28T18:32:33.187Z,37.88
2023-01-28T18:35:02.213Z,38.13
2023-01-28T18:37:31.234Z,39.38
2023-01-28T18:39:58.991Z,43.30
2023-01-28T18:42:27.324Z,41.05
2023-01-28T18:44:54.977Z,38.70
2023-01-28T18:47:23.078Z,37.83
2023-01-28T18:49:50.730Z,36.85
2023-01-28T18:52:18.417Z,36.33
2023-01-28T18:54:47.645Z,38.20
2023-01-28T18:57:15.979Z,33.42
2023-01-28T18:59:43.666Z,35.63
2023-01-28T19:02:15.634Z,37.30
2023-01-28T19:04:43.553Z,34.00
2023-01-28T19:07:11.984Z,34.17
2023-01-28T19:09:39.793Z,35.92
2023-01-28T19:12:08.913Z,37.22
2023-01-28T19:14:36.589Z,37.55
2023-01-28T19:17:04.326Z,39.30
2023-01-28T19:19:32.156Z,35.45
2023-01-28T19:21:59.829Z,34.22
2023-01-28T19:24:27.810Z,37.45
2023-01-28T19:26:55.640Z,35.08
2023-01-28T19:29:27.206Z,38.35
2023-01-28T19:31:55.018Z,36.20
2023-01-28T19:34:22.720Z,32.30
2023-01-28T19:36:50.405Z,33.17
2023-01-28T19:39:18.420Z,35.92
2023-01-28T19:41:46.118Z,35.40
2023-01-28T19:44:14.151Z,36.50
2023-01-28T19:46:43.240Z,40.65
2023-01-28T19:49:12.595Z,43.40
2023-01-28T19:51:40.413Z,39.83
2023-01-28T19:54:08.136Z,39.20
2023-01-28T19:56:37.560Z,35.38
2023-01-28T19:59:05.750Z,37.20
2023-01-28T20:01:33.529Z,37.47
2023-01-28T20:04:02.711Z,41.10
2023-01-28T20:06:32.423Z,42.33
2023-01-28T20:09:02.854Z,42.17
2023-01-28T20:11:30.661Z,43.72
2023-01-28T20:13:59.832Z,38.33
2023-01-28T20:16:29.399Z,39.30
2023-01-28T20:18:59.129Z,36.83
2023-01-28T20:21:29.581Z,37.13
2023-01-28T20:23:59.132Z,40.33
2023-01-28T20:26:31.223Z,36.22
2023-01-28T20:29:01.541Z,38.25
2023-01-28T20:31:29.542Z,43.17
2023-01-28T20:33:57.315Z,41.65
2023-01-28T20:36:25.061Z,41.28
2023-01-28T20:38:54.105Z,42.63
2023-01-28T20:41:24.038Z,41.42
2023-01-28T20:43:53.162Z,41.85
2023-01-28T20:46:22.933Z,39.58
2023-01-28T20:48:50.924Z,39.83
2023-01-28T20:51:20.451Z,40.13
2023-01-28T20:53:49.038Z,39.67
2023-01-28T20:56:19.416Z,39.50
2023-01-28T20:58:49.160Z,38.17
2023-01-28T21:01:18.311Z,46.97
2023-01-28T21:03:46.186Z,42.53
2023-01-28T21:06:13.993Z,46.83
2023-01-28T21:08:41.912Z,40.70
2023-01-28T21:11:10.209Z,42.80
2023-01-28T21:13:39.752Z,41.97
2023-01-28T21:16:08.172Z,41.45
2023-01-28T21:18:36.159Z,41.90
2023-01-28T21:21:05.972Z,42.45
2023-01-28T21:23:33.806Z,44.08
2023-01-28T21:26:03.187Z,46.60
2023-01-28T21:28:31.341Z,45.70
2023-01-28T21:31:08.788Z,45.08
2023-01-28T21:33:36.913Z,70.10
2023-01-28T21:36:09.994Z,48.03
2023-01-28T21:38:37.829Z,48.45
2023-01-28T21:41:06.204Z,41.10
2023-01-28T21:43:34.643Z,47.08
2023-01-28T21:46:03.270Z,43.15
2023-01-28T21:48:32.440Z,43.75
2023-01-28T21:51:23.574Z,46.10
2023-01-28T21:53:51.507Z,43.08
2023-01-28T21:56:19.466Z,47.17
2023-01-28T21:59:04.639Z,47.40
2023-01-28T22:01:32.504Z,43.35
2023-01-28T22:04:01.793Z,50.67
2023-01-28T22:06:29.853Z,46.15
2023-01-28T22:08:57.979Z,43.58
2023-01-28T22:11:25.812Z,43.25
2023-01-28T22:13:53.572Z,40.67
2023-01-28T22:16:21.352Z,44.70
2023-01-28T22:18:50.172Z,43.63
2023-01-28T22:21:20.107Z,48.85
2023-01-28T22:23:47.768Z,45.67
2023-01-28T22:26:15.516Z,42.67
2023-01-28T22:28:43.248Z,44.03
2023-01-28T22:31:13.254Z,46.47
2023-01-28T22:33:41.266Z,46.47
2023-01-28T22:36:13.054Z,46.53
2023-01-28T22:38:43.261Z,42.25
2023-01-28T22:41:13.355Z,46.15
2023-01-28T22:43:41.440Z,44.13
2023-01-28T22:46:10.707Z,46.25
2023-01-28T22:48:39.498Z,44.50
2023-01-28T22:51:09.036Z,43.28
2023-01-28T22:53:36.838Z,44.55
2023-01-28T23:01:40.071Z,48.15
2023-01-28T23:04:07.802Z,44.58
2023-01-28T23:06:37.103Z,45.58
2023-01-28T23:09:05.365Z,47.58
2023-01-28T23:11:33.262Z,49.42
2023-01-28T23:14:20.299Z,48.30
2023-01-28T23:17:07.579Z,49.10
2023-01-28T23:19:53.220Z,46.55
2023-01-28T23:22:41.746Z,45.63
2023-01-28T23:25:10.155Z,45.53
2023-01-28T23:27:37.986Z,45.72
2023-01-28T23:30:09.821Z,46.45
2023-01-28T23:32:40.424Z,41.55
2023-01-28T23:35:08.867Z,49.15
2023-01-28T23:37:36.591Z,45.83
2023-01-28T23:40:04.798Z,47.72
2023-01-28T23:42:32.586Z,47.60
2023-01-28T23:45:00.810Z,46.88
2023-01-28T23:47:28.617Z,48.25
2023-01-28T23:49:57.666Z,44.72
2023-01-28T23:52:26.620Z,47.83
2023-01-28T23:54:54.304Z,46.70
2023-01-28T23:57:22.004Z,43.97
2023-01-28T23:59:49.709Z,43.13
